Time;durP1;ratioP1;P1;durP2;ratioP2;P2;SDS_P1;SDS_P2;PMS_P1;PMS_P2;Temp;Humidity;BMP_temperature;BMP_pressure;BME280_temperature;BME280_humidity;BME280_pressure;Samples;Min_cycle;Max_cycle;Signal;HPM_P1;HPM_P2
2023/09/29 00:01:48;;;;;;;19.35;7.95;;;15.40;99.90;;;;;;5024903;28;20420;-68
2023/09/29 00:04:14;;;;;;;23.85;8.98;;;15.40;99.90;;;;;;5030749;28;20042;-68
2023/09/29 00:06:40;;;;;;;30.58;9.77;;;15.30;99.90;;;;;;5009673;28;20120;-68
2023/09/29 00:09:08;;;;;;;21.35;8.98;;;15.30;99.90;;;;;;5024138;28;20468;-68
2023/09/29 00:11:34;;;;;;;21.10;9.73;;;15.30;99.90;;;;;;5032317;28;20120;-68
2023/09/29 00:14:00;;;;;;;19.63;8.98;;;15.30;99.90;;;;;;5002545;28;20121;-69
2023/09/29 00:16:25;;;;;;;20.70;8.45;;;15.30;99.90;;;;;;5023755;28;20133;-67
2023/09/29 00:18:51;;;;;;;19.15;8.82;;;15.30;99.90;;;;;;5026997;28;20038;-68
2023/09/29 00:21:17;;;;;;;19.00;9.57;;;15.30;99.90;;;;;;5032738;28;20112;-67
2023/09/29 00:23:42;;;;;;;26.35;9.63;;;15.30;99.90;;;;;;5018645;28;20022;-67
2023/09/29 00:26:08;;;;;;;24.33;9.88;;;15.40;99.90;;;;;;5020433;28;20416;-67
2023/09/29 00:28:33;;;;;;;20.25;10.00;;;15.40;99.90;;;;;;5032304;28;20511;-67
2023/09/29 00:30:59;;;;;;;19.95;10.02;;;15.40;99.90;;;;;;5029204;28;20372;-68
2023/09/29 00:33:25;;;;;;;25.13;11.23;;;15.50;99.90;;;;;;5031417;28;20667;-69
2023/09/29 00:35:51;;;;;;;20.45;9.75;;;15.50;99.90;;;;;;5023305;28;20037;-69
2023/09/29 00:38:16;;;;;;;22.77;10.45;;;15.50;99.90;;;;;;5025324;28;20041;-68
2023/09/29 00:40:42;;;;;;;27.58;11.80;;;15.50;99.90;;;;;;5030633;28;20033;-69
2023/09/29 00:43:08;;;;;;;26.05;11.32;;;15.50;99.90;;;;;;5023570;28;20108;-69
2023/09/29 00:45:35;;;;;;;20.42;11.07;;;15.60;99.90;;;;;;5014385;28;20649;-68
2023/09/29 00:48:08;;;;;;;22.00;11.90;;;15.60;99.90;;;;;;5020882;28;20492;-68
2023/09/29 00:50:35;;;;;;;24.35;11.18;;;15.60;99.90;;;;;;5004377;28;20558;-68
2023/09/29 00:53:06;;;;;;;24.77;11.60;;;15.70;99.90;;;;;;5027755;28;20053;-69
2023/09/29 00:55:32;;;;;;;26.80;11.98;;;15.70;99.90;;;;;;5026231;28;20755;-68
2023/09/29 00:57:59;;;;;;;24.48;12.00;;;15.70;99.90;;;;;;5027287;28;20042;-68
2023/09/29 01:02:53;;;;;;;26.55;11.30;;;15.70;99.90;;;;;;5011920;28;20501;-68
2023/09/29 01:05:19;;;;;;;25.65;11.77;;;15.70;99.90;;;;;;5013738;28;20038;-69
2023/09/29 01:07:46;;;;;;;29.52;12.15;;;15.70;99.90;;;;;;5013214;28;20403;-69
2023/09/29 01:10:13;;;;;;;21.90;11.15;;;15.70;99.90;;;;;;5014053;28;20045;-69
2023/09/29 01:12:40;;;;;;;23.10;11.30;;;15.70;99.90;;;;;;5012618;28;20051;-68
2023/09/29 01:15:06;;;;;;;26.98;11.63;;;15.60;99.90;;;;;;5023635;28;20055;-68
2023/09/29 01:17:32;;;;;;;25.85;11.50;;;15.70;99.90;;;;;;5023245;28;20083;-69
2023/09/29 01:19:57;;;;;;;22.55;11.20;;;15.70;99.90;;;;;;5031589;28;20037;-68
2023/09/29 01:22:23;;;;;;;21.20;10.82;;;15.70;99.90;;;;;;5017122;28;20044;-68
2023/09/29 01:24:48;;;;;;;21.63;11.13;;;15.70;99.90;;;;;;5020405;28;20519;-68
2023/09/29 01:27:14;;;;;;;26.42;10.85;;;15.70;99.90;;;;;;5029047;28;20116;-67
2023/09/29 01:29:42;;;;;;;27.38;11.30;;;15.70;99.90;;;;;;5031745;28;20046;-68
2023/09/29 01:32:12;;;;;;;19.98;10.38;;;15.70;99.90;;;;;;5014247;28;20125;-67
2023/09/29 01:34:37;;;;;;;22.25;11.57;;;15.80;99.90;;;;;;5026642;28;20536;-68
2023/09/29 01:37:04;;;;;;;22.77;11.57;;;15.70;99.90;;;;;;4995987;28;20197;-67
2023/09/29 01:39:30;;;;;;;22.23;11.10;;;15.80;99.90;;;;;;4997210;28;20030;-68
2023/09/29 01:41:56;;;;;;;21.83;11.65;;;15.80;99.90;;;;;;5028599;28;20053;-68
2023/09/29 01:44:22;;;;;;;23.08;10.98;;;15.70;99.90;;;;;;5003219;28;20042;-69
2023/09/29 01:46:49;;;;;;;29.25;11.93;;;15.80;99.90;;;;;;5009322;28;20052;-68
2023/09/29 01:49:15;;;;;;;22.75;11.70;;;15.80;99.90;;;;;;5014121;28;20042;-69
2023/09/29 01:51:44;;;;;;;23.33;12.20;;;15.80;99.90;;;;;;5019220;28;20033;-69
2023/09/29 01:54:09;;;;;;;23.23;11.82;;;15.80;99.90;;;;;;5028481;28;20041;-68
2023/09/29 01:56:35;;;;;;;25.08;12.18;;;15.80;99.90;;;;;;5027403;28;20041;-68
2023/09/29 01:59:01;;;;;;;24.40;12.90;;;15.80;99.90;;;;;;5016847;28;20099;-69
2023/09/29 02:01:26;;;;;;;27.65;12.48;;;15.90;99.90;;;;;;5012438;28;20099;-69
2023/09/29 02:03:52;;;;;;;26.42;12.45;;;15.90;99.90;;;;;;5011497;28;20377;-68
2023/09/29 02:06:17;;;;;;;26.35;13.05;;;15.90;99.90;;;;;;5019616;28;20045;-69
2023/09/29 02:08:43;;;;;;;24.70;12.63;;;15.90;99.90;;;;;;5022779;28;20523;-67
2023/09/29 02:11:09;;;;;;;29.08;12.63;;;15.90;99.90;;;;;;5013332;28;20038;-67
2023/09/29 02:13:35;;;;;;;22.65;12.23;;;16.00;99.90;;;;;;5022632;28;20036;-69
2023/09/29 02:16:05;;;;;;;23.08;12.40;;;16.00;99.90;;;;;;5025553;28;20040;-68
2023/09/29 02:18:31;;;;;;;24.23;12.48;;;16.00;99.90;;;;;;5021639;28;20048;-68
2023/09/29 02:20:57;;;;;;;25.05;12.32;;;16.00;99.90;;;;;;5022646;28;20038;-69
2023/09/29 02:23:23;;;;;;;25.80;12.88;;;16.00;99.90;;;;;;5021516;28;20042;-68
2023/09/29 02:25:49;;;;;;;24.55;13.70;;;16.00;99.90;;;;;;5022576;28;20034;-68
2023/09/29 02:28:14;;;;;;;26.42;13.55;;;16.00;99.90;;;;;;5031036;28;20232;-67
2023/09/29 02:30:40;;;;;;;28.25;13.25;;;16.00;99.90;;;;;;5001854;28;20033;-68
2023/09/29 02:33:06;;;;;;;27.25;12.75;;;16.00;99.90;;;;;;5021230;28;20440;-68
2023/09/29 02:35:32;;;;;;;24.65;12.73;;;16.00;99.90;;;;;;5030624;28;20087;-68
2023/09/29 02:37:58;;;;;;;24.85;12.43;;;16.00;99.90;;;;;;5021880;28;20056;-68
2023/09/29 02:40:24;;;;;;;27.45;13.20;;;16.00;99.90;;;;;;5029025;28;20375;-68
2023/09/29 02:42:50;;;;;;;23.98;12.80;;;16.00;99.90;;;;;;5022697;28;20032;-69
2023/09/29 02:45:16;;;;;;;25.45;13.55;;;16.10;99.90;;;;;;5013006;28;20045;-69
2023/09/29 02:47:42;;;;;;;25.45;13.55;;;16.10;99.90;;;;;;5024134;28;20132;-68
2023/09/29 02:50:12;;;;;;;23.23;12.48;;;16.10;99.90;;;;;;5032776;28;20045;-67
2023/09/29 02:52:39;;;;;;;27.27;12.52;;;16.10;99.90;;;;;;5014605;28;20391;-69
2023/09/29 02:55:12;;;;;;;22.48;12.50;;;16.10;99.90;;;;;;4994683;28;20065;-69
2023/09/29 02:57:40;;;;;;;28.13;12.55;;;16.10;99.90;;;;;;5021642;28;20421;-69
2023/09/29 03:00:10;;;;;;;23.55;12.93;;;16.20;99.90;;;;;;5030838;28;20048;-68
2023/09/29 03:02:35;;;;;;;22.52;13.30;;;16.10;99.90;;;;;;5029826;28;20033;-69
2023/09/29 03:05:01;;;;;;;25.83;12.68;;;16.20;99.90;;;;;;5033879;28;20029;-67
2023/09/29 03:07:27;;;;;;;27.63;13.15;;;16.10;99.90;;;;;;5025029;28;20515;-67
2023/09/29 03:09:56;;;;;;;23.90;12.05;;;16.20;99.90;;;;;;5027656;28;20073;-67
2023/09/29 03:12:21;;;;;;;27.90;13.27;;;16.20;99.90;;;;;;5002296;28;20049;-67
2023/09/29 03:14:47;;;;;;;27.63;13.10;;;16.20;99.90;;;;;;5008627;28;20373;-68
2023/09/29 03:17:12;;;;;;;25.75;13.80;;;16.20;99.90;;;;;;5030767;28;20041;-67
2023/09/29 03:19:38;;;;;;;26.73;13.50;;;16.20;99.90;;;;;;5007857;28;20037;-69
2023/09/29 03:22:04;;;;;;;23.38;13.82;;;16.20;99.90;;;;;;5027523;28;20037;-68
2023/09/29 03:24:29;;;;;;;30.90;13.82;;;16.20;99.90;;;;;;5025009;28;20033;-68
2023/09/29 03:26:55;;;;;;;28.55;14.23;;;16.20;99.90;;;;;;5025881;28;20050;-69
2023/09/29 03:29:20;;;;;;;24.17;13.52;;;16.20;99.90;;;;;;5021332;28;20381;-67
2023/09/29 03:31:47;;;;;;;25.75;14.23;;;16.20;99.90;;;;;;5027295;28;20065;-67
2023/09/29 03:34:14;;;;;;;27.40;15.30;;;16.20;99.90;;;;;;5031382;28;20075;-67
2023/09/29 03:36:39;;;;;;;32.42;15.95;;;16.20;99.90;;;;;;5033144;28;20088;-69
2023/09/29 03:39:06;;;;;;;23.38;15.30;;;16.20;99.90;;;;;;5015863;28;20038;-67
2023/09/29 03:41:33;;;;;;;27.42;15.80;;;16.20;99.90;;;;;;5021705;28;20446;-68
2023/09/29 03:43:59;;;;;;;30.77;16.25;;;16.20;99.90;;;;;;5024886;28;20484;-67
2023/09/29 03:46:25;;;;;;;29.02;16.05;;;16.20;99.90;;;;;;5021756;28;20117;-69
2023/09/29 03:48:50;;;;;;;34.50;16.05;;;16.20;99.90;;;;;;5016515;28;20508;-69
2023/09/29 03:51:26;;;;;;;24.65;15.32;;;16.30;99.90;;;;;;5022596;28;20084;-69
2023/09/29 03:53:55;;;;;;;25.08;15.30;;;16.30;99.90;;;;;;5027566;28;20443;-69
2023/09/29 03:56:23;;;;;;;27.30;15.48;;;16.30;99.90;;;;;;5029882;28;20052;-69
2023/09/29 03:58:50;;;;;;;28.63;14.43;;;16.30;99.90;;;;;;5024932;28;20037;-69
2023/09/29 04:01:16;;;;;;;26.88;14.82;;;16.30;99.90;;;;;;5022032;28;20041;-69
2023/09/29 04:03:42;;;;;;;26.20;14.77;;;16.30;99.90;;;;;;5008949;28;20127;-67
2023/09/29 04:06:08;;;;;;;24.23;13.85;;;16.40;99.90;;;;;;5020358;28;20130;-68
2023/09/29 04:08:34;;;;;;;26.10;13.52;;;16.40;99.90;;;;;;5032484;28;20052;-67
2023/09/29 04:10:59;;;;;;;25.08;13.70;;;16.50;99.90;;;;;;5013799;28;20033;-68
2023/09/29 04:13:25;;;;;;;26.08;13.35;;;16.50;99.90;;;;;;5027874;28;20385;-68
2023/09/29 04:15:51;;;;;;;29.42;13.45;;;16.50;99.90;;;;;;5026597;28;20037;-68
2023/09/29 04:18:17;;;;;;;20.48;13.60;;;16.60;99.90;;;;;;5026863;28;20061;-67
2023/09/29 04:20:42;;;;;;;27.45;13.95;;;16.60;99.90;;;;;;5023713;28;20029;-69
2023/09/29 04:23:08;;;;;;;23.35;13.60;;;16.60;99.90;;;;;;5011207;28;20403;-69
2023/09/29 04:25:34;;;;;;;24.13;13.93;;;16.60;99.90;;;;;;5011676;28;20050;-69
2023/09/29 04:28:00;;;;;;;27.83;13.43;;;16.60;99.90;;;;;;5010270;28;20092;-67
2023/09/29 04:30:25;;;;;;;25.63;13.23;;;16.70;99.90;;;;;;5003726;28;20103;-68
2023/09/29 04:32:52;;;;;;;24.83;13.43;;;16.70;99.90;;;;;;5025880;28;20117;-68
2023/09/29 04:35:18;;;;;;;21.77;13.25;;;16.70;99.90;;;;;;5013041;28;20045;-67
2023/09/29 04:37:44;;;;;;;25.90;13.27;;;16.70;99.90;;;;;;5021477;28;20455;-67
2023/09/29 04:40:11;;;;;;;23.63;12.57;;;16.70;99.90;;;;;;5023630;28;20045;-67
2023/09/29 04:42:37;;;;;;;20.38;12.68;;;16.70;99.90;;;;;;5032128;28;20033;-67
2023/09/29 04:45:04;;;;;;;28.65;12.60;;;16.70;99.90;;;;;;5020097;28;20037;-67
2023/09/29 04:47:30;;;;;;;21.13;13.05;;;16.70;99.90;;;;;;5010532;28;20659;-68
2023/09/29 04:49:56;;;;;;;18.88;11.48;;;16.70;99.90;;;;;;5014613;28;20111;-70
2023/09/29 04:52:21;;;;;;;22.48;12.32;;;16.70;99.90;;;;;;5018484;28;20041;-67
2023/09/29 04:54:48;;;;;;;21.77;11.68;;;16.70;99.90;;;;;;5018154;28;20114;-69
2023/09/29 04:57:13;;;;;;;21.85;12.35;;;16.70;99.90;;;;;;5013853;28;20053;-69
2023/09/29 04:59:39;;;;;;;22.35;12.18;;;16.70;99.90;;;;;;4994605;28;20412;-69
2023/09/29 05:02:05;;;;;;;24.42;12.40;;;16.80;99.90;;;;;;5014950;28;20043;-67
2023/09/29 05:04:32;;;;;;;19.35;12.20;;;16.80;99.90;;;;;;5019920;28;20030;-68
2023/09/29 05:06:57;;;;;;;21.13;11.60;;;16.80;99.90;;;;;;5027062;28;20049;-67
2023/09/29 05:09:23;;;;;;;22.00;11.75;;;16.80;99.90;;;;;;5021532;28;20042;-70
2023/09/29 05:11:49;;;;;;;20.98;11.07;;;16.90;99.90;;;;;;5025304;28;20041;-69
2023/09/29 05:14:15;;;;;;;18.60;10.73;;;16.90;99.90;;;;;;5029593;28;20420;-68
2023/09/29 05:16:40;;;;;;;18.92;10.90;;;16.90;99.90;;;;;;5023689;28;20120;-68
2023/09/29 05:19:06;;;;;;;18.73;10.82;;;17.00;99.90;;;;;;5027299;28;20033;-68
2023/09/29 05:21:32;;;;;;;17.00;9.63;;;17.00;99.90;;;;;;5023492;28;20530;-67
2023/09/29 05:23:58;;;;;;;17.08;10.32;;;17.00;99.90;;;;;;5031660;28;20041;-68
2023/09/29 05:26:23;;;;;;;18.77;10.55;;;17.00;99.90;;;;;;5017978;28;20053;-66
2023/09/29 05:28:53;;;;;;;16.73;10.43;;;17.00;99.90;;;;;;5019832;28;20037;-68
2023/09/29 05:31:19;;;;;;;20.90;10.85;;;17.00;99.90;;;;;;5026339;28;20053;-67
2023/09/29 05:33:44;;;;;;;21.10;11.00;;;16.90;99.90;;;;;;5018792;28;20038;-68
2023/09/29 05:36:10;;;;;;;18.85;10.95;;;17.00;99.90;;;;;;5014894;28;20223;-68
2023/09/29 05:38:36;;;;;;;17.08;10.02;;;16.90;99.90;;;;;;5015215;28;20034;-67
2023/09/29 05:41:01;;;;;;;22.85;10.40;;;16.90;99.90;;;;;;5010203;28;20487;-69
2023/09/29 05:43:27;;;;;;;18.00;10.10;;;16.90;99.90;;;;;;4995383;28;20029;-69
2023/09/29 05:45:52;;;;;;;17.77;10.57;;;16.90;99.90;;;;;;5018735;28;20033;-69
2023/09/29 05:48:18;;;;;;;18.98;10.60;;;16.90;99.90;;;;;;5013032;28;20048;-68
2023/09/29 05:50:44;;;;;;;17.17;11.07;;;16.90;99.90;;;;;;5026608;28;20071;-68
2023/09/29 05:53:11;;;;;;;18.00;10.45;;;16.80;99.90;;;;;;5029168;28;20116;-69
2023/09/29 05:55:39;;;;;;;17.25;10.73;;;16.80;99.90;;;;;;5023346;28;20462;-67
2023/09/29 05:58:05;;;;;;;19.90;10.25;;;16.80;99.90;;;;;;5028588;28;20046;-68
2023/09/29 06:00:31;;;;;;;19.13;10.60;;;16.80;99.90;;;;;;5026319;28;20049;-69
2023/09/29 06:02:59;;;;;;;18.15;10.20;;;16.80;99.90;;;;;;5025821;28;20048;-69
2023/09/29 06:05:25;;;;;;;17.55;9.73;;;16.90;99.90;;;;;;5011949;28;20042;-70
2023/09/29 06:07:51;;;;;;;16.75;9.52;;;16.90;99.90;;;;;;5009539;28;20034;-68
2023/09/29 06:10:16;;;;;;;18.23;9.68;;;16.90;99.90;;;;;;5021964;28;20048;-68
2023/09/29 06:12:42;;;;;;;18.00;9.40;;;16.90;99.90;;;;;;5020675;28;20120;-68
2023/09/29 06:15:09;;;;;;;14.95;8.10;;;16.90;99.90;;;;;;5027544;28;20123;-69
2023/09/29 06:17:35;;;;;;;20.00;8.77;;;17.00;99.90;;;;;;5026314;28;20120;-67
2023/09/29 06:20:00;;;;;;;12.93;8.45;;;17.00;99.90;;;;;;5023029;28;20112;-68
2023/09/29 06:22:26;;;;;;;15.23;8.27;;;17.00;99.90;;;;;;5032037;28;20167;-68
2023/09/29 06:24:52;;;;;;;14.88;8.05;;;17.00;99.90;;;;;;5003019;28;20041;-67
2023/09/29 06:27:17;;;;;;;12.75;7.95;;;17.10;99.90;;;;;;5004226;28;20046;-67
2023/09/29 06:29:46;;;;;;;13.75;8.27;;;17.10;99.90;;;;;;5026151;28;20033;-67
2023/09/29 06:32:13;;;;;;;16.90;7.65;;;17.20;99.90;;;;;;5025193;28;20065;-67
2023/09/29 06:34:39;;;;;;;14.95;8.13;;;17.20;99.90;;;;;;5022719;28;20048;-68
2023/09/29 06:37:05;;;;;;;11.25;7.32;;;17.20;99.90;;;;;;5025069;28;20037;-71
2023/09/29 06:39:30;;;;;;;13.63;6.68;;;17.30;99.90;;;;;;5016405;28;20515;-71
2023/09/29 06:41:56;;;;;;;14.95;7.22;;;17.30;99.90;;;;;;5027613;28;20046;-65
2023/09/29 06:44:22;;;;;;;13.20;6.60;;;17.30;99.90;;;;;;5015519;28;20048;-68
2023/09/29 06:46:48;;;;;;;12.00;6.75;;;17.30;99.90;;;;;;5025195;28;20067;-68
2023/09/29 06:49:13;;;;;;;11.93;6.93;;;17.30;99.90;;;;;;5021190;28;20044;-69
2023/09/29 06:51:39;;;;;;;9.10;6.20;;;17.30;99.90;;;;;;5021638;28;20072;-70
2023/09/29 06:54:04;;;;;;;8.88;6.15;;;17.30;99.90;;;;;;5019254;28;20041;-70
2023/09/29 06:56:30;;;;;;;11.80;6.43;;;17.40;99.90;;;;;;5021877;28;20046;-69
2023/09/29 06:58:55;;;;;;;9.93;5.80;;;17.40;99.90;;;;;;5029044;28;20427;-68
2023/09/29 07:01:22;;;;;;;12.68;5.85;;;17.50;99.90;;;;;;5033438;28;20407;-68
2023/09/29 07:03:47;;;;;;;11.30;6.30;;;17.50;99.90;;;;;;5021855;28;20065;-68
2023/09/29 07:06:14;;;;;;;11.02;6.20;;;17.50;99.90;;;;;;4996254;28;20492;-67
2023/09/29 07:08:40;;;;;;;10.93;6.15;;;17.50;99.90;;;;;;5026446;28;20445;-68
2023/09/29 07:11:06;;;;;;;9.05;5.70;;;17.60;99.90;;;;;;5030517;28;20045;-69
2023/09/29 07:13:31;;;;;;;10.68;5.95;;;17.50;99.90;;;;;;5029243;28;20087;-68
2023/09/29 07:15:57;;;;;;;13.68;6.30;;;17.60;99.90;;;;;;5033037;28;20029;-69
2023/09/29 07:18:23;;;;;;;15.63;6.53;;;17.60;99.90;;;;;;5023766;28;20511;-69
2023/09/29 07:20:53;;;;;;;15.02;7.18;;;17.70;99.90;;;;;;5033318;28;20045;-68
2023/09/29 07:23:23;;;;;;;10.47;6.07;;;17.80;99.90;;;;;;5011283;28;20504;-68
2023/09/29 07:25:50;;;;;;;10.95;6.10;;;17.90;99.90;;;;;;5021479;28;20485;-68
2023/09/29 07:28:19;;;;;;;9.95;5.45;;;17.90;99.90;;;;;;5031257;28;20518;-69
2023/09/29 07:30:45;;;;;;;11.45;5.78;;;18.00;99.90;;;;;;5010412;28;20037;-69
2023/09/29 07:33:11;;;;;;;9.02;5.25;;;18.00;99.90;;;;;;5021096;28;20046;-68
2023/09/29 07:35:37;;;;;;;9.48;5.88;;;18.00;99.90;;;;;;5027449;28;20037;-68
2023/09/29 07:38:04;;;;;;;7.82;5.28;;;18.00;99.90;;;;;;5022709;28;20065;-69
2023/09/29 07:40:30;;;;;;;9.10;5.60;;;18.00;99.90;;;;;;5024295;28;20037;-67
2023/09/29 07:42:57;;;;;;;8.23;5.20;;;18.10;99.90;;;;;;5025660;28;20104;-68
2023/09/29 07:45:23;;;;;;;13.18;5.55;;;18.20;99.90;;;;;;5031837;28;20040;-68
2023/09/29 07:47:49;;;;;;;8.77;4.95;;;18.40;99.90;;;;;;5019673;28;20045;-67
2023/09/29 07:50:14;;;;;;;11.60;5.40;;;18.40;99.90;;;;;;4996918;28;20052;-68
2023/09/29 07:52:40;;;;;;;10.20;5.60;;;18.60;99.90;;;;;;5017332;28;20442;-68
2023/09/29 07:55:07;;;;;;;9.88;5.70;;;18.60;99.90;;;;;;5017226;28;20038;-69
2023/09/29 07:57:33;;;;;;;10.60;5.32;;;18.70;99.90;;;;;;5021869;28;20128;-68
2023/09/29 07:59:59;;;;;;;7.70;5.32;;;18.80;99.90;;;;;;5023591;28;20107;-69
2023/09/29 08:02:25;;;;;;;6.38;5.07;;;18.80;99.90;;;;;;5032012;28;20412;-69
2023/09/29 08:04:51;;;;;;;8.98;5.63;;;18.90;99.90;;;;;;5022081;28;20522;-69
2023/09/29 08:07:17;;;;;;;8.32;5.10;;;18.90;99.90;;;;;;5018879;28;20045;-69
2023/09/29 08:09:42;;;;;;;9.85;5.45;;;19.00;99.90;;;;;;5021389;28;20041;-69
2023/09/29 08:12:08;;;;;;;7.25;5.28;;;19.10;99.90;;;;;;5022848;28;20042;-69
2023/09/29 08:14:33;;;;;;;7.85;5.20;;;19.20;99.90;;;;;;5020927;28;20115;-69
2023/09/29 08:16:59;;;;;;;7.78;5.22;;;19.30;99.90;;;;;;5026305;28;20042;-68
2023/09/29 08:19:25;;;;;;;8.38;5.05;;;19.40;99.90;;;;;;5032347;28;20145;-68
2023/09/29 08:21:50;;;;;;;9.82;5.88;;;19.40;99.90;;;;;;5019438;28;20155;-69
2023/09/29 08:24:16;;;;;;;5.97;5.10;;;19.50;99.90;;;;;;5019966;28;20038;-69
2023/09/29 08:26:42;;;;;;;9.05;5.72;;;19.60;99.90;;;;;;5023769;28;20030;-70
2023/09/29 08:29:10;;;;;;;6.95;4.97;;;19.60;99.90;;;;;;5020948;28;20443;-68
2023/09/29 08:31:35;;;;;;;8.93;5.00;;;19.70;99.90;;;;;;5016826;28;20042;-68
2023/09/29 08:34:04;;;;;;;10.00;5.50;;;19.70;99.90;;;;;;5029310;28;20044;-69
2023/09/29 08:36:30;;;;;;;8.55;5.38;;;19.80;99.90;;;;;;5023267;28;20064;-69
2023/09/29 08:38:55;;;;;;;7.10;5.00;;;19.80;99.90;;;;;;5014088;28;20492;-69
2023/09/29 08:41:25;;;;;;;7.43;5.25;;;19.90;99.90;;;;;;5020528;28;20642;-72
2023/09/29 08:43:51;;;;;;;8.02;5.10;;;20.00;99.90;;;;;;5019421;28;20083;-71
2023/09/29 08:46:20;;;;;;;10.55;5.03;;;20.00;99.90;;;;;;4999855;28;20484;-71
2023/09/29 08:48:47;;;;;;;9.77;5.20;;;20.00;99.90;;;;;;5022537;28;20500;-68
2023/09/29 08:51:15;;;;;;;8.52;5.07;;;20.10;99.90;;;;;;5029612;28;20067;-69
2023/09/29 08:53:42;;;;;;;7.40;4.85;;;20.10;99.90;;;;;;5031889;28;20088;-69
2023/09/29 08:56:12;;;;;;;7.57;4.80;;;20.20;99.90;;;;;;5020478;28;20045;-69
2023/09/29 08:58:38;;;;;;;6.03;4.70;;;20.30;99.90;;;;;;5019616;28;20042;-69
2023/09/29 09:01:05;;;;;;;7.13;5.35;;;20.30;99.90;;;;;;4997292;28;20477;-69
2023/09/29 09:03:31;;;;;;;11.68;5.32;;;20.30;99.90;;;;;;4999362;28;20038;-69
2023/09/29 09:06:22;;;;;;;8.13;5.22;;;20.40;99.90;;;;;;5019391;28;20030;-69
2023/09/29 09:08:50;;;;;;;7.93;4.40;;;20.50;99.90;;;;;;5012320;28;20137;-70
2023/09/29 09:11:15;;;;;;;7.80;4.85;;;20.50;99.90;;;;;;5016524;28;20051;-70
2023/09/29 09:13:41;;;;;;;8.52;4.60;;;20.60;99.90;;;;;;5023841;28;20029;-69
2023/09/29 09:16:07;;;;;;;7.93;4.72;;;20.70;99.90;;;;;;5023192;28;20048;-68
2023/09/29 09:18:33;;;;;;;9.93;4.80;;;20.70;99.90;;;;;;5019271;28;20041;-68
2023/09/29 09:20:58;;;;;;;9.32;4.80;;;20.80;99.90;;;;;;5020107;28;20108;-69
2023/09/29 09:23:24;;;;;;;8.77;4.40;;;20.90;99.90;;;;;;5023245;28;20124;-69
2023/09/29 09:25:49;;;;;;;10.05;4.70;;;20.90;99.90;;;;;;5013097;28;20120;-69
2023/09/29 09:28:16;;;;;;;8.18;4.50;;;21.00;99.90;;;;;;5027798;28;20068;-68
2023/09/29 09:30:43;;;;;;;7.70;4.55;;;21.10;99.90;;;;;;5018911;28;20121;-69
2023/09/29 09:33:17;;;;;;;7.88;4.30;;;21.20;99.90;;;;;;5017901;28;20049;-69
2023/09/29 09:35:43;;;;;;;7.03;4.25;;;21.30;99.90;;;;;;5017385;28;20072;-69
2023/09/29 09:38:08;;;;;;;5.63;3.83;;;21.30;99.90;;;;;;5016994;28;20081;-68
2023/09/29 09:40:34;;;;;;;6.63;4.13;;;21.40;99.90;;;;;;5021700;28;20054;-68
2023/09/29 09:43:03;;;;;;;9.88;4.03;;;21.30;99.90;;;;;;5026660;28;20029;-68
2023/09/29 09:45:40;;;;;;;6.60;4.35;;;21.40;99.90;;;;;;5028409;28;20108;-69
2023/09/29 09:48:08;;;;;;;6.53;3.90;;;21.50;99.90;;;;;;5022139;28;20490;-69
2023/09/29 09:50:36;;;;;;;7.95;4.40;;;21.50;99.90;;;;;;5027676;28;20100;-69
2023/09/29 09:53:03;;;;;;;8.48;4.32;;;21.50;99.90;;;;;;5003027;28;20057;-68
2023/09/29 09:55:41;;;;;;;7.25;4.47;;;21.50;99.90;;;;;;5018417;28;20037;-67
2023/09/29 09:58:15;;;;;;;6.97;4.38;;;21.30;99.90;;;;;;5021967;28;20046;-68
2023/09/29 10:00:50;;;;;;;6.13;3.80;;;21.30;99.90;;;;;;5005523;28;20073;-68
2023/09/29 10:03:17;;;;;;;6.78;3.90;;;21.30;99.90;;;;;;5024277;28;20037;-67
2023/09/29 10:05:49;;;;;;;5.72;4.07;;;21.30;99.90;;;;;;5028577;28;20077;-69
2023/09/29 10:08:32;;;;;;;6.25;4.13;;;21.40;99.90;;;;;;5007271;28;20045;-69
2023/09/29 10:11:14;;;;;;;6.68;4.35;;;21.40;99.90;;;;;;5023169;28;20117;-69
2023/09/29 10:13:42;;;;;;;5.22;3.75;;;21.60;99.90;;;;;;5006708;28;20089;-69
2023/09/29 10:16:19;;;;;;;7.03;4.20;;;21.70;99.90;;;;;;5014817;28;20391;-70
2023/09/29 10:18:58;;;;;;;6.60;4.18;;;21.60;99.90;;;;;;5024621;28;20060;-69
2023/09/29 10:21:25;;;;;;;6.45;4.10;;;21.70;99.90;;;;;;5029193;28;20110;-68
2023/09/29 10:23:51;;;;;;;7.38;4.07;;;21.70;99.90;;;;;;5034825;28;20562;-67
2023/09/29 10:26:19;;;;;;;7.95;4.30;;;21.60;99.90;;;;;;5017784;28;20068;-67
2023/09/29 10:28:45;;;;;;;7.25;4.25;;;21.50;99.90;;;;;;5025874;28;20036;-68
2023/09/29 10:31:17;;;;;;;8.20;4.35;;;21.40;99.90;;;;;;5025331;28;20034;-68
2023/09/29 10:33:52;;;;;;;6.70;4.50;;;21.40;99.90;;;;;;5034652;28;20040;-67
2023/09/29 10:36:23;;;;;;;8.23;4.30;;;21.30;99.90;;;;;;5021043;28;20045;-67
2023/09/29 10:38:49;;;;;;;7.95;4.43;;;21.20;99.90;;;;;;5021079;28;20354;-67
2023/09/29 10:41:15;;;;;;;7.45;4.68;;;21.10;99.90;;;;;;5021682;28;20041;-68
2023/09/29 10:43:43;;;;;;;6.78;4.22;;;21.10;99.90;;;;;;5018644;28;20413;-68
2023/09/29 10:46:09;;;;;;;7.47;4.68;;;21.10;99.90;;;;;;5022663;28;20091;-67
2023/09/29 10:48:44;;;;;;;6.63;4.22;;;21.00;99.90;;;;;;5016003;28;20416;-69
2023/09/29 10:51:11;;;;;;;7.75;4.50;;;21.00;99.90;;;;;;5020553;28;20042;-67
2023/09/29 10:53:37;;;;;;;10.60;4.50;;;21.10;99.90;;;;;;5029368;28;20064;-67
2023/09/29 10:56:03;;;;;;;7.68;4.72;;;21.10;99.90;;;;;;5030331;28;20120;-68
2023/09/29 10:58:37;;;;;;;7.90;4.93;;;21.20;99.90;;;;;;5034327;28;20116;-68
2023/09/29 11:01:03;;;;;;;8.65;4.88;;;21.40;99.90;;;;;;5020796;28;20038;-68
2023/09/29 11:03:30;;;;;;;7.40;4.57;;;21.60;99.90;;;;;;5022677;28;20046;-67
2023/09/29 11:06:08;;;;;;;9.57;4.88;;;21.70;99.90;;;;;;5030925;28;20060;-69
2023/09/29 11:08:42;;;;;;;7.07;4.63;;;21.80;99.90;;;;;;5021605;28;20436;-68
2023/09/29 11:11:09;;;;;;;6.18;4.38;;;22.00;99.90;;;;;;5012927;28;20057;-68
2023/09/29 11:13:37;;;;;;;8.35;5.20;;;22.10;99.90;;;;;;5017639;28;20037;-68
2023/09/29 11:16:13;;;;;;;7.20;5.03;;;22.10;99.90;;;;;;5020791;28;20037;-69
2023/09/29 11:18:39;;;;;;;7.15;4.53;;;22.10;99.90;;;;;;5018293;28;20034;-71
2023/09/29 11:21:09;;;;;;;7.78;4.55;;;22.10;99.90;;;;;;5020048;28;20031;-66
2023/09/29 11:23:43;;;;;;;7.03;4.82;;;22.00;99.90;;;;;;5010612;28;20408;-69
2023/09/29 11:26:10;;;;;;;9.88;4.80;;;21.90;99.90;;;;;;5021937;28;20493;-67
2023/09/29 11:28:53;;;;;;;9.00;4.50;;;21.90;99.90;;;;;;5020790;28;20088;-68
2023/09/29 11:31:20;;;;;;;9.48;5.00;;;21.80;99.90;;;;;;5027805;28;20037;-68
2023/09/29 11:33:46;;;;;;;7.00;4.57;;;21.80;99.90;;;;;;5010519;28;20058;-68
2023/09/29 11:36:19;;;;;;;7.07;4.70;;;21.70;99.90;;;;;;5033008;28;20041;-70
2023/09/29 11:38:45;;;;;;;8.20;4.50;;;21.90;99.90;;;;;;4998888;28;20053;-67
2023/09/29 11:41:12;;;;;;;11.93;5.22;;;22.10;99.90;;;;;;5009830;28;20052;-69
2023/09/29 11:43:40;;;;;;;8.55;4.80;;;22.20;99.90;;;;;;5034048;28;20112;-70
2023/09/29 11:46:06;;;;;;;7.55;4.32;;;22.40;99.90;;;;;;5005713;28;20449;-67
2023/09/29 11:48:32;;;;;;;7.93;4.70;;;22.40;99.90;;;;;;5032491;28;20129;-68
2023/09/29 11:50:57;;;;;;;7.95;4.50;;;22.40;99.90;;;;;;5030742;28;20072;-68
2023/09/29 11:53:23;;;;;;;5.93;4.80;;;22.30;99.90;;;;;;5022372;28;20041;-68
2023/09/29 11:55:49;;;;;;;8.02;4.75;;;22.30;99.90;;;;;;5028572;28;20041;-67
2023/09/29 11:58:15;;;;;;;10.82;5.05;;;22.30;99.90;;;;;;5026145;28;20095;-68
2023/09/29 12:00:41;;;;;;;8.13;4.60;;;22.30;99.90;;;;;;5033677;28;20037;-68
2023/09/29 12:03:08;;;;;;;8.43;4.60;;;22.30;99.90;;;;;;5022307;28;20037;-68
2023/09/29 12:05:36;;;;;;;7.82;4.47;;;22.20;99.90;;;;;;5023998;28;20518;-69
2023/09/29 12:08:03;;;;;;;6.20;4.50;;;22.20;99.90;;;;;;5018648;28;20076;-69
2023/09/29 12:10:30;;;;;;;11.50;5.18;;;22.00;99.90;;;;;;5017295;28;20125;-68
2023/09/29 12:12:56;;;;;;;8.65;5.10;;;21.90;99.90;;;;;;5007863;28;20050;-69
2023/09/29 12:15:22;;;;;;;9.73;5.05;;;21.80;99.90;;;;;;5019223;28;21589;-68
2023/09/29 12:17:47;;;;;;;10.20;5.80;;;21.70;99.90;;;;;;5023622;28;20129;-67
2023/09/29 12:20:14;;;;;;;7.85;5.30;;;21.60;99.90;;;;;;5023641;28;20038;-69
2023/09/29 12:22:45;;;;;;;9.18;5.28;;;21.60;99.90;;;;;;5014962;28;20042;-68
2023/09/29 12:25:12;;;;;;;7.90;5.15;;;21.50;99.90;;;;;;5017954;28;20045;-68
2023/09/29 12:27:38;;;;;;;27.60;7.93;;;21.30;99.90;;;;;;5024939;28;20050;-67
2023/09/29 12:30:08;;;;;;;5.97;3.10;;;21.10;99.90;;;;;;5022170;28;20048;-67
2023/09/29 12:32:38;;;;;;;6.47;4.63;;;20.70;99.90;;;;;;5026837;28;20037;-66
2023/09/29 12:35:05;;;;;;;10.45;6.50;;;20.40;99.90;;;;;;5012748;28;20498;-67
2023/09/29 12:37:31;;;;;;;12.40;7.50;;;20.30;99.90;;;;;;4996804;28;20558;-67